createdAt,value
2022-07-28T00:01:56.889Z,75.66
2022-07-28T00:04:26.367Z,75.20
2022-07-28T00:06:55.722Z,75.08
2022-07-28T00:09:25.025Z,75.09
2022-07-28T00:11:55.104Z,75.21
2022-07-28T00:14:24.777Z,75.34
2022-07-28T00:16:55.375Z,75.83
2022-07-28T00:19:24.976Z,75.67
2022-07-28T00:21:54.252Z,75.70
2022-07-28T00:24:24.430Z,75.90
2022-07-28T00:26:53.871Z,76.11
2022-07-28T00:29:23.088Z,76.20
2022-07-28T00:31:52.383Z,76.62
2022-07-28T00:34:26.573Z,77.32
2022-07-28T00:36:56.093Z,76.98
2022-07-28T00:39:25.543Z,77.32
2022-07-28T00:41:54.817Z,77.27
2022-07-28T00:44:24.045Z,78.39
2022-07-28T00:46:53.723Z,77.87
2022-07-28T00:49:24.560Z,78.11
2022-07-28T00:51:54.745Z,78.71
2022-07-28T00:54:23.979Z,77.95
2022-07-28T00:56:53.494Z,78.24
2022-07-28T00:59:23.001Z,78.58
2022-07-28T01:01:53.247Z,78.74
2022-07-28T01:04:25.872Z,78.82
2022-07-28T01:07:09.018Z,78.93
2022-07-28T01:09:51.768Z,78.72
2022-07-28T01:12:35.228Z,79.13
2022-07-28T01:15:14.143Z,78.63
2022-07-28T01:17:52.553Z,78.83
2022-07-28T01:20:30.057Z,79.23
2022-07-28T01:23:22.653Z,79.59
2022-07-28T01:26:10.037Z,78.59
2022-07-28T01:28:55.833Z,78.59
2022-07-28T01:31:29.413Z,78.70
2022-07-28T01:34:01.760Z,78.70
2022-07-28T01:36:34.496Z,78.99
2022-07-28T01:39:04.405Z,79.21
2022-07-28T01:41:36.053Z,79.21
2022-07-28T01:44:09.794Z,79.18
2022-07-28T01:46:41.246Z,78.70
2022-07-28T01:49:12.375Z,78.58
2022-07-28T01:51:42.832Z,78.75
2022-07-28T01:54:15.716Z,79.14
2022-07-28T01:56:47.996Z,79.07
2022-07-28T01:59:18.457Z,78.50
2022-07-28T02:01:50.902Z,78.58
2022-07-28T02:04:24.442Z,78.63
2022-07-28T02:06:56.594Z,78.72
2022-07-28T02:09:27.310Z,78.31
2022-07-28T02:11:57.072Z,78.63
2022-07-28T02:14:28.687Z,78.30
2022-07-28T02:17:03.384Z,78.40
2022-07-28T02:19:34.505Z,78.30
2022-07-28T02:22:05.931Z,78.30
2022-07-28T02:24:37.109Z,78.44
2022-07-28T02:27:12.953Z,78.15
2022-07-28T02:29:51.118Z,78.20
2022-07-28T02:32:28.577Z,78.46
2022-07-28T02:35:02.985Z,78.37
2022-07-28T02:37:38.941Z,78.19
2022-07-28T02:40:14.822Z,78.30
2022-07-28T02:42:47.983Z,78.32
2022-07-28T02:45:18.177Z,78.88
2022-07-28T02:47:53.157Z,78.90
2022-07-28T02:50:25.857Z,78.76
2022-07-28T02:52:59.128Z,79.12
2022-07-28T02:55:30.113Z,78.86
2022-07-28T02:58:01.624Z,79.07
2022-07-28T03:00:37.244Z,78.94
2022-07-28T03:03:08.170Z,79.07
2022-07-28T03:05:38.546Z,79.39
2022-07-28T03:08:07.614Z,79.17
2022-07-28T03:10:36.835Z,79.40
2022-07-28T03:13:08.009Z,79.21
2022-07-28T03:15:40.202Z,79.12
2022-07-28T03:18:11.077Z,79.45
2022-07-28T03:20:40.287Z,78.92
2022-07-28T03:23:10.727Z,79.05
2022-07-28T03:25:45.299Z,79.58
2022-07-28T03:28:19.555Z,80.12
2022-07-28T03:30:53.491Z,79.56
2022-07-28T03:33:24.396Z,79.89
2022-07-28T03:35:57.746Z,79.50
2022-07-28T03:38:30.991Z,79.38
2022-07-28T03:41:01.067Z,79.47
2022-07-28T03:43:31.336Z,79.76
2022-07-28T03:46:00.700Z,79.63
2022-07-28T03:48:34.870Z,80.01
2022-07-28T03:51:04.259Z,80.23
2022-07-28T03:53:33.757Z,79.80
2022-07-28T03:56:03.429Z,80.35
2022-07-28T03:58:33.076Z,80.37
2022-07-28T04:01:02.599Z,80.77
2022-07-28T04:03:42.452Z,80.54
2022-07-28T04:06:15.239Z,80.38
2022-07-28T04:08:46.584Z,80.09
2022-07-28T04:11:16.050Z,80.21
2022-07-28T04:13:45.306Z,80.57
2022-07-28T04:16:14.563Z,80.92
2022-07-28T04:18:45.467Z,80.56
2022-07-28T04:21:14.729Z,80.47
2022-07-28T04:23:43.957Z,80.64
2022-07-28T04:26:13.672Z,81.33
2022-07-28T04:28:42.897Z,81.52
2022-07-28T04:31:12.250Z,80.43
2022-07-28T04:33:42.766Z,80.28
2022-07-28T04:36:13.106Z,80.09
2022-07-28T04:38:42.547Z,80.45
2022-07-28T04:41:11.832Z,80.33
2022-07-28T04:43:41.277Z,80.34
2022-07-28T04:46:14.842Z,80.72
2022-07-28T04:48:45.450Z,80.52
2022-07-28T04:51:16.447Z,80.20
2022-07-28T04:53:47.558Z,80.32
2022-07-28T04:56:17.063Z,80.45
2022-07-28T04:58:46.279Z,79.97
2022-07-28T05:01:17.503Z,79.81
2022-07-28T05:03:46.776Z,79.99
2022-07-28T05:06:18.690Z,80.20
2022-07-28T05:08:49.628Z,80.68
2022-07-28T05:11:19.042Z,80.41
2022-07-28T05:13:48.495Z,80.46
2022-07-28T05:16:17.780Z,80.19
2022-07-28T05:18:47.111Z,80.13
2022-07-28T05:21:21.036Z,80.04
2022-07-28T05:23:52.019Z,80.20
2022-07-28T05:26:21.689Z,80.02
2022-07-28T05:28:51.095Z,79.82
2022-07-28T05:31:20.360Z,79.92
2022-07-28T05:33:49.877Z,79.90
2022-07-28T05:36:23.086Z,79.79
2022-07-28T05:38:52.532Z,79.69
2022-07-28T05:41:21.755Z,79.93
2022-07-28T05:43:50.965Z,79.82
2022-07-28T05:46:20.511Z,79.75
2022-07-28T05:48:49.806Z,79.61
2022-07-28T05:51:19.036Z,80.30
2022-07-28T05:53:49.871Z,80.29
2022-07-28T05:56:19.081Z,79.89
2022-07-28T05:58:48.450Z,79.69
2022-07-28T06:01:17.966Z,79.68
2022-07-28T06:04:03.522Z,79.25
2022-07-28T06:06:38.669Z,79.44
2022-07-28T06:09:09.318Z,79.32
2022-07-28T06:11:38.603Z,79.33
2022-07-28T06:14:08.060Z,79.35
2022-07-28T06:16:37.312Z,78.93
2022-07-28T06:19:06.570Z,78.78
2022-07-28T06:21:36.026Z,78.69
2022-07-28T06:24:05.564Z,78.73
2022-07-28T06:26:43.713Z,78.27
2022-07-28T06:29:14.087Z,78.53
2022-07-28T06:31:43.472Z,78.21
2022-07-28T06:34:12.922Z,78.31
2022-07-28T06:36:42.584Z,78.08
2022-07-28T06:39:12.357Z,77.83
2022-07-28T06:41:44.572Z,77.75
2022-07-28T06:44:15.623Z,77.77
2022-07-28T06:46:45.085Z,77.35
2022-07-28T06:49:14.621Z,76.99
2022-07-28T06:51:44.300Z,76.87
2022-07-28T06:54:14.335Z,76.78
2022-07-28T06:56:49.541Z,76.87
2022-07-28T06:59:18.960Z,76.47
2022-07-28T07:01:49.026Z,76.34
2022-07-28T07:04:19.025Z,76.00
2022-07-28T07:06:48.609Z,75.98
2022-07-28T07:09:18.090Z,75.95
2022-07-28T07:11:48.779Z,75.91
2022-07-28T07:14:18.852Z,75.63
2022-07-28T07:16:48.171Z,75.16
2022-07-28T07:19:17.429Z,75.08
2022-07-28T07:21:46.845Z,74.87
2022-07-28T07:24:17.148Z,74.70
2022-07-28T07:26:48.268Z,74.07
2022-07-28T07:29:17.993Z,73.61
2022-07-28T07:31:47.634Z,73.46
2022-07-28T07:34:22.510Z,73.44
2022-07-28T07:36:51.749Z,72.88
2022-07-28T07:39:21.129Z,72.41
2022-07-28T07:41:52.005Z,71.84
2022-07-28T07:44:21.222Z,71.79
2022-07-28T07:46:50.530Z,71.70
2022-07-28T07:49:20.152Z,71.90
2022-07-28T07:51:49.455Z,71.87
2022-07-28T07:54:18.666Z,71.57
2022-07-28T07:56:48.441Z,71.55
2022-07-28T07:59:19.077Z,71.13
2022-07-28T08:01:54.244Z,71.10
2022-07-28T08:04:25.291Z,71.02
2022-07-28T08:06:55.484Z,70.63
2022-07-28T08:09:25.768Z,70.51
2022-07-28T08:11:55.084Z,70.34
2022-07-28T08:14:25.740Z,70.35
2022-07-28T08:16:56.590Z,70.09
2022-07-28T08:19:25.995Z,69.68
2022-07-28T08:21:56.511Z,69.53
2022-07-28T08:24:32.748Z,68.93
2022-07-28T08:27:03.711Z,69.28
2022-07-28T08:29:34.933Z,69.29
2022-07-28T08:32:04.757Z,69.29
2022-07-28T08:34:34.756Z,69.16
2022-07-28T08:37:06.057Z,68.27
2022-07-28T08:39:36.726Z,68.17
2022-07-28T08:42:08.694Z,67.74
2022-07-28T08:44:55.038Z,67.02
2022-07-28T08:47:24.831Z,67.18
2022-07-28T08:49:55.477Z,67.46
2022-07-28T08:52:26.164Z,66.87
2022-07-28T08:54:57.111Z,66.75
2022-07-28T08:57:29.800Z,66.59
2022-07-28T09:00:01.209Z,66.39
2022-07-28T09:02:32.914Z,66.36
2022-07-28T09:05:03.310Z,66.12
2022-07-28T09:07:32.708Z,65.97
2022-07-28T09:10:05.826Z,65.92
2022-07-28T09:12:35.762Z,65.64
2022-07-28T09:15:07.408Z,65.42
2022-07-28T09:17:37.137Z,65.44
2022-07-28T09:20:11.044Z,64.53
2022-07-28T09:22:57.109Z,63.64
2022-07-28T09:25:26.931Z,62.13
2022-07-28T09:27:56.290Z,62.67
2022-07-28T09:30:36.962Z,62.45
2022-07-28T09:33:42.372Z,62.43
2022-07-28T09:36:16.754Z,61.80
2022-07-28T09:38:46.932Z,62.21
2022-07-28T09:41:18.824Z,61.63
2022-07-28T09:43:54.465Z,60.92
2022-07-28T09:46:29.901Z,60.97
2022-07-28T09:49:01.424Z,61.17
2022-07-28T09:51:33.596Z,60.91
2022-07-28T09:54:12.154Z,61.50
2022-07-28T09:56:45.041Z,61.84
2022-07-28T09:59:17.891Z,62.12
2022-07-28T10:01:59.789Z,61.80
2022-07-28T10:04:55.707Z,61.45
2022-07-28T10:07:55.242Z,61.46
2022-07-28T10:10:29.391Z,61.51
2022-07-28T10:13:07.348Z,61.12
2022-07-28T10:15:54.547Z,61.68
2022-07-28T10:18:25.288Z,61.67
2022-07-28T10:20:55.496Z,61.30
2022-07-28T10:23:24.745Z,60.99
2022-07-28T10:25:56.885Z,61.35
2022-07-28T10:28:27.103Z,60.10
2022-07-28T10:30:59.476Z,59.48
2022-07-28T10:33:33.823Z,59.55
2022-07-28T10:36:03.716Z,59.37
2022-07-28T10:38:38.351Z,59.49
2022-07-28T10:41:10.276Z,59.29
2022-07-28T10:43:42.694Z,59.13
2022-07-28T10:46:16.859Z,58.75
2022-07-28T10:48:48.388Z,58.65
2022-07-28T10:51:18.199Z,58.20
2022-07-28T10:53:53.252Z,58.39
2022-07-28T10:56:30.888Z,58.45
2022-07-28T10:59:06.712Z,58.05
2022-07-28T11:01:52.557Z,58.69
2022-07-28T11:04:59.146Z,58.89
2022-07-28T11:07:40.741Z,59.29
2022-07-28T11:10:20.777Z,59.27
2022-07-28T11:12:51.463Z,59.20
2022-07-28T11:15:32.629Z,59.42
2022-07-28T11:18:04.985Z,59.54
2022-07-28T11:21:07.832Z,59.18
2022-07-28T11:23:48.598Z,59.20
2022-07-28T11:26:38.708Z,58.95
2022-07-28T11:29:27.669Z,58.53
2022-07-28T11:32:09.003Z,58.46
2022-07-28T11:35:10.020Z,58.40
2022-07-28T11:38:15.718Z,58.47
2022-07-28T11:40:46.126Z,58.07
2022-07-28T11:43:37.106Z,57.33
2022-07-28T11:46:25.512Z,57.79
2022-07-28T11:49:18.255Z,58.53
2022-07-28T11:52:17.031Z,58.04
2022-07-28T11:54:56.956Z,58.38
2022-07-28T11:57:28.094Z,58.36
2022-07-28T12:00:02.607Z,58.03
2022-07-28T12:02:36.699Z,58.25
2022-07-28T12:05:12.481Z,57.80
2022-07-28T12:07:45.253Z,57.75
2022-07-28T12:10:54.053Z,58.13
2022-07-28T12:13:28.843Z,58.01
2022-07-28T12:15:58.713Z,57.35
2022-07-28T12:18:28.175Z,57.81
2022-07-28T12:21:01.696Z,57.53
2022-07-28T12:23:45.643Z,57.46
2022-07-28T12:26:31.870Z,57.22
2022-07-28T12:29:08.569Z,56.93
2022-07-28T12:31:51.711Z,56.48
2022-07-28T12:34:28.621Z,56.24
2022-07-28T12:36:59.861Z,56.77
2022-07-28T12:39:30.894Z,56.42
2022-07-28T12:42:06.514Z,56.07
2022-07-28T12:44:40.132Z,56.09
2022-07-28T12:47:13.125Z,56.16
2022-07-28T12:49:44.792Z,56.07
2022-07-28T12:52:22.177Z,55.72
2022-07-28T12:54:56.837Z,55.66
2022-07-28T12:57:49.878Z,55.53
2022-07-28T13:00:24.941Z,55.79
2022-07-28T13:02:56.435Z,55.26
2022-07-28T13:05:50.387Z,54.83
2022-07-28T13:08:19.705Z,55.46
2022-07-28T13:10:56.714Z,55.37
2022-07-28T13:13:28.367Z,55.56
2022-07-28T13:16:14.149Z,55.43
2022-07-28T13:18:44.696Z,55.19
2022-07-28T13:21:15.757Z,54.75
2022-07-28T13:23:45.442Z,54.81
2022-07-28T13:26:14.698Z,54.86
2022-07-28T13:28:45.365Z,55.16
2022-07-28T13:31:14.743Z,55.33
2022-07-28T13:33:45.484Z,55.44
2022-07-28T13:36:15.942Z,55.53
2022-07-28T13:38:45.627Z,55.63
2022-07-28T13:41:14.933Z,54.88
2022-07-28T13:43:48.181Z,54.69
2022-07-28T13:46:17.997Z,54.92
2022-07-28T13:48:57.884Z,55.14
2022-07-28T13:51:29.673Z,55.16
2022-07-28T13:54:05.092Z,55.44
2022-07-28T13:56:39.282Z,55.13
2022-07-28T13:59:17.350Z,54.69
2022-07-28T14:01:49.641Z,54.93
2022-07-28T14:04:21.771Z,55.15
2022-07-28T14:06:54.421Z,54.94
2022-07-28T14:09:28.905Z,55.20
2022-07-28T14:11:58.508Z,55.40
2022-07-28T14:14:29.749Z,55.40
2022-07-28T14:17:32.538Z,55.43
2022-07-28T14:20:00.555Z,55.35
2022-07-28T14:22:32.518Z,55.44
2022-07-28T14:25:05.294Z,55.42
2022-07-28T14:27:40.398Z,55.09
2022-07-28T14:30:13.544Z,55.00
2022-07-28T14:33:07.213Z,55.33
2022-07-28T14:36:23.692Z,55.11
2022-07-28T14:38:59.252Z,55.21
2022-07-28T14:41:36.441Z,55.19
2022-07-28T14:44:24.576Z,55.29
2022-07-28T14:46:56.796Z,54.57
2022-07-28T14:49:57.662Z,54.93
2022-07-28T14:52:44.761Z,54.89
2022-07-28T14:55:14.705Z,54.68
2022-07-28T14:57:48.265Z,55.15
2022-07-28T15:00:24.439Z,55.28
2022-07-28T15:02:55.549Z,54.82
2022-07-28T15:05:25.507Z,55.05
2022-07-28T15:07:55.013Z,54.60
2022-07-28T15:10:24.402Z,54.77
2022-07-28T15:12:53.635Z,54.56
2022-07-28T15:15:26.594Z,54.50
2022-07-28T15:17:58.535Z,54.11
2022-07-28T15:20:28.084Z,54.39
2022-07-28T15:22:57.388Z,54.21
2022-07-28T15:25:26.706Z,53.87
2022-07-28T15:27:56.301Z,54.33
2022-07-28T15:30:28.135Z,54.36
2022-07-28T15:33:01.693Z,53.95
2022-07-28T15:35:58.732Z,53.79
2022-07-28T15:38:22.446Z,53.52
2022-07-28T15:40:51.784Z,51.57
2022-07-28T15:43:23.858Z,52.92
2022-07-28T15:46:25.127Z,53.39
2022-07-28T15:49:00.496Z,53.34
2022-07-28T15:51:30.477Z,53.74
2022-07-28T15:54:06.849Z,53.80
2022-07-28T15:56:38.489Z,54.12
2022-07-28T15:59:11.989Z,53.53
2022-07-28T16:02:08.586Z,53.53
2022-07-28T16:04:58.527Z,54.32
2022-07-28T16:07:29.494Z,54.55
2022-07-28T16:10:00.049Z,55.21
2022-07-28T16:12:32.326Z,55.46
2022-07-28T16:15:01.848Z,55.87
2022-07-28T16:18:03.172Z,56.15
2022-07-28T16:20:49.304Z,56.71
2022-07-28T16:23:19.377Z,56.84
2022-07-28T16:25:49.158Z,56.70
2022-07-28T16:28:18.438Z,56.60
2022-07-28T16:30:48.502Z,56.92
2022-07-28T16:33:18.163Z,56.82
2022-07-28T16:35:49.034Z,57.11
2022-07-28T16:41:11.442Z,57.18
2022-07-28T16:43:45.884Z,57.44
2022-07-28T16:46:15.639Z,57.56
2022-07-28T16:48:44.994Z,57.72
2022-07-28T16:51:15.970Z,57.93
2022-07-28T16:53:49.673Z,58.19
2022-07-28T16:56:19.131Z,58.82
2022-07-28T16:58:49.178Z,58.89
2022-07-28T17:01:19.433Z,59.06
2022-07-28T17:03:49.085Z,59.32
2022-07-28T17:06:19.861Z,59.54
2022-07-28T17:08:49.455Z,59.58
2022-07-28T17:11:18.839Z,59.95
2022-07-28T17:13:48.181Z,60.03
2022-07-28T17:16:17.776Z,60.33
2022-07-28T17:18:48.158Z,60.84
2022-07-28T17:21:18.862Z,60.97
2022-07-28T17:23:48.422Z,61.19
2022-07-28T17:29:07.403Z,61.77
2022-07-28T17:31:37.052Z,61.55
2022-07-28T17:34:06.401Z,61.86
2022-07-28T17:36:38.883Z,61.85
2022-07-28T17:39:11.405Z,62.19
2022-07-28T17:41:40.953Z,62.19
2022-07-28T17:44:10.323Z,62.41
2022-07-28T17:46:39.590Z,62.50
2022-07-28T17:49:09.539Z,62.82
2022-07-28T17:51:41.741Z,62.80
2022-07-28T17:54:13.897Z,62.90
2022-07-28T17:56:43.469Z,62.97
2022-07-28T17:59:13.809Z,63.29
2022-07-28T18:01:45.620Z,63.24
2022-07-28T18:04:15.672Z,63.47
2022-07-28T18:06:46.650Z,63.45
2022-07-28T18:09:16.006Z,63.54
2022-07-28T18:11:57.191Z,63.79
2022-07-28T18:14:28.802Z,63.96
2022-07-28T18:17:01.949Z,64.01
2022-07-28T18:19:32.164Z,64.16
2022-07-28T18:22:03.416Z,64.02
2022-07-28T18:24:32.786Z,64.15
2022-07-28T18:27:06.961Z,64.16
2022-07-28T18:29:38.618Z,64.35
2022-07-28T18:32:12.299Z,64.41
2022-07-28T18:34:41.724Z,64.48
2022-07-28T18:37:13.869Z,64.64
2022-07-28T18:39:43.766Z,64.72
2022-07-28T18:42:13.865Z,65.04
2022-07-28T18:44:43.182Z,65.28
2022-07-28T18:47:12.964Z,65.29
2022-07-28T18:49:44.621Z,65.30
2022-07-28T18:52:15.771Z,65.41
2022-07-28T18:54:45.293Z,65.49
2022-07-28T18:57:14.603Z,65.51
2022-07-28T18:59:46.637Z,65.68
2022-07-28T19:02:19.018Z,65.69
2022-07-28T19:04:48.459Z,65.92
2022-07-28T19:07:19.110Z,65.91
2022-07-28T19:09:48.528Z,65.78
2022-07-28T19:12:17.854Z,65.67
2022-07-28T19:14:47.085Z,65.82
2022-07-28T19:17:16.744Z,65.82
2022-07-28T19:19:46.044Z,65.85
2022-07-28T19:22:17.777Z,65.79
2022-07-28T19:24:47.283Z,65.81
2022-07-28T19:27:16.734Z,65.87
2022-07-28T19:29:47.602Z,65.91
2022-07-28T19:32:17.189Z,65.92
2022-07-28T19:34:46.428Z,66.13
2022-07-28T19:37:17.336Z,66.09
2022-07-28T19:39:47.181Z,66.13
2022-07-28T19:42:16.586Z,66.17
2022-07-28T19:44:46.592Z,66.33
2022-07-28T19:47:16.398Z,66.29
2022-07-28T19:49:53.710Z,66.38
2022-07-28T19:52:24.627Z,66.51
2022-07-28T19:54:55.906Z,66.50
2022-07-28T19:57:25.584Z,66.70
2022-07-28T19:59:54.959Z,66.77
2022-07-28T20:02:30.056Z,66.72
2022-07-28T20:04:59.713Z,67.23
2022-07-28T20:07:31.888Z,67.36
2022-07-28T20:10:02.662Z,67.47
2022-07-28T20:12:36.353Z,67.54
2022-07-28T20:15:07.212Z,67.68
2022-07-28T20:17:38.882Z,67.81
2022-07-28T20:20:11.747Z,68.07
2022-07-28T20:22:42.881Z,68.05
2022-07-28T20:25:14.070Z,68.09
2022-07-28T20:27:44.247Z,67.88
2022-07-28T20:30:15.176Z,68.11
2022-07-28T20:32:45.724Z,68.61
2022-07-28T20:35:15.610Z,68.91
2022-07-28T20:37:46.741Z,68.97
2022-07-28T20:40:16.006Z,69.39
2022-07-28T20:42:48.690Z,69.08
2022-07-28T20:45:22.292Z,68.66
2022-07-28T20:47:51.869Z,68.65
2022-07-28T20:50:21.664Z,68.89
2022-07-28T20:52:52.369Z,69.16
2022-07-28T20:55:22.300Z,69.25
2022-07-28T20:57:53.170Z,69.34
2022-07-28T21:00:24.043Z,69.37
2022-07-28T21:02:53.684Z,69.42
2022-07-28T21:05:35.182Z,69.31
2022-07-28T21:08:09.123Z,69.61
2022-07-28T21:10:43.431Z,69.77
2022-07-28T21:13:13.087Z,69.91
2022-07-28T21:15:42.328Z,69.94
2022-07-28T21:18:11.717Z,69.78
2022-07-28T21:20:41.906Z,70.04
2022-07-28T21:23:12.570Z,70.21
2022-07-28T21:25:45.061Z,70.03
2022-07-28T21:28:32.421Z,70.44
2022-07-28T21:31:01.894Z,70.28
2022-07-28T21:33:31.457Z,70.52
2022-07-28T21:36:00.907Z,70.44
2022-07-28T21:38:32.369Z,70.57
2022-07-28T21:41:01.895Z,70.59
2022-07-28T21:43:32.691Z,70.73
2022-07-28T21:46:02.122Z,70.80
2022-07-28T21:48:32.285Z,71.22
2022-07-28T21:51:01.681Z,71.01
2022-07-28T21:53:32.411Z,71.20
2022-07-28T21:56:01.633Z,71.75
2022-07-28T21:58:31.080Z,71.90
2022-07-28T22:01:02.763Z,71.63
2022-07-28T22:03:32.439Z,71.93
2022-07-28T22:06:01.844Z,71.72
2022-07-28T22:08:32.497Z,71.68
2022-07-28T22:11:02.147Z,71.66
2022-07-28T22:13:31.739Z,71.49
2022-07-28T22:16:01.008Z,71.98
2022-07-28T22:18:30.458Z,72.22
2022-07-28T22:20:59.754Z,71.95
2022-07-28T22:23:30.129Z,72.13
2022-07-28T22:26:01.122Z,72.44
2022-07-28T22:28:30.955Z,72.62
2022-07-28T22:31:09.393Z,72.52
2022-07-28T22:33:39.681Z,72.67
2022-07-28T22:36:09.709Z,72.86
2022-07-28T22:38:39.202Z,72.94
2022-07-28T22:41:10.668Z,72.35
2022-07-28T22:43:40.163Z,73.09
2022-07-28T22:46:11.408Z,73.44
2022-07-28T22:48:41.032Z,74.02
2022-07-28T22:51:12.008Z,74.76
2022-07-28T22:53:41.672Z,74.05
2022-07-28T22:57:05.702Z,73.67
2022-07-28T22:59:55.675Z,73.77
2022-07-28T23:02:26.979Z,73.74
2022-07-28T23:04:56.225Z,73.58
2022-07-28T23:07:50.991Z,73.61
2022-07-28T23:10:15.007Z,73.71
2022-07-28T23:12:44.253Z,73.67
2022-07-28T23:15:15.013Z,73.53
2022-07-28T23:17:44.508Z,73.55
2022-07-28T23:20:13.984Z,73.79
2022-07-28T23:22:43.276Z,73.74
2022-07-28T23:25:12.816Z,74.00
2022-07-28T23:27:42.134Z,74.40
2022-07-28T23:30:13.904Z,74.89
2022-07-28T23:32:43.475Z,75.31
2022-07-28T23:35:13.108Z,75.17
2022-07-28T23:37:42.413Z,75.80
2022-07-28T23:40:13.298Z,75.67
2022-07-28T23:42:42.863Z,76.34
2022-07-28T23:45:14.453Z,76.17
2022-07-28T23:47:43.723Z,75.97
2022-07-28T23:50:13.081Z,76.44
2022-07-28T23:52:42.653Z,76.71
2022-07-28T23:55:12.277Z,76.87
2022-07-28T23:57:41.561Z,77.05
